• Join FlightAware (Why Join?)
  • Login
  • US Flag 
01:36AM EDT


 

Airport Tracker/Info


-or-


 

Live Flight TrackerFlight Track Log ✈ EJA922 ✈ 18-Jan-2014 ✈ KSNA - KPHX

Flight Track Log - Related Links

Times and Time Zones

All times are in EST time to prevent confusion due to time zone crossing. See the EJA922 flight status page for this flight to view local times or setup timezone preferences in your user account.

Time Position Orientation Groundspeed Altitude Reporting Facility
EST Latitude Longitude Course Direction KTS MPH feet Rate Location/Type
07:14PM 33.5567 -117.8897 172° South 235 270 7,300  Level Los Angeles Center
07:15PM 33.5492 -117.8094 96° East 261 300 10,000 2,340 Climbing Los Angeles Center
07:16PM 33.5625 -117.6903 82° East 314 361 12,200 2,280 Climbing Los Angeles Center
07:17PM 33.5733 -117.5819 83° East 352 405 14,700 2,400 Climbing Los Angeles Center
07:18PM 33.5856 -117.4561 83° East 377 434 17,200 2,280 Climbing Los Angeles Center
07:19PM 33.6534 -116.8416 91° East  Level Estimated
07:20PM 33.5917 -117.2994 87° East 393 452 19,900  Level Los Angeles Center
07:21PM 33.5967 -117.1344 88° East 412 474 22,400 1,860 Climbing Los Angeles Center
07:22PM 33.6025 -116.9883 87° East 433 498 23,800 1,500 Climbing Los Angeles Center
07:23PM 33.6069 -116.8461 88° East 451 519 25,600 1,680 Climbing Los Angeles Center
07:24PM 33.6117 -116.6911 88° East 462 532 27,300 1,800 Climbing Los Angeles Center
07:25PM 33.6181 -116.4975 88° East 480 552 29,300 1,560 Climbing Los Angeles Center
07:26PM 33.6239 -116.3292 88° East 498 573 30,600 1,260 Climbing Los Angeles Center
07:27PM 33.6272 -116.1539 89° East 518 596 31,900 1,080 Climbing Los Angeles Center
07:28PM 33.6250 -115.9717 91° East 538 619 32,900 480 Climbing Los Angeles Center
07:29PM 33.6211 -115.7886 91° East 545 627 33,000  Climbing Los Angeles Center
07:30PM 33.6158 -115.5689 92° East 546 628 33,000  Level Los Angeles Center
07:31PM 33.6114 -115.3875 92° East 545 627 33,000  Level Los Angeles Center
07:32PM 33.6050 -115.2103 92° East 537 618 33,000 -60 Level Los Angeles Center
07:33PM 33.6008 -115.0039 91° East 522 601 32,900  Descending Los Angeles Center
07:34PM 33.5969 -114.8331 92° East 515 593 33,000  Climbing Los Angeles Center
07:35PM 33.5778 -114.6650 98° East 510 587 33,000 -900 Level Los Angeles Center
07:36PM 33.5450 -114.4972 103° East 512 589 31,200 -2,340 Descending Los Angeles Center
07:37PM 33.5083 -114.3192 104° East 539 620 28,300 -2,820 Descending Los Angeles Center
07:38PM 33.4736 -114.1450 103° East 541 623 25,400 -1,620 Descending Los Angeles Center
07:39PM 33.4425 -113.9850 103° East 507 583 25,000 -240 Descending Los Angeles Center
07:40PM 33.4106 -113.8217 103° East 503 579 25,000 -180 Level Los Angeles Center
07:41PM 33.3703 -113.6233 104° East 510 587 24,700 -1,440 Descending Los Angeles Center
07:42PM 33.3392 -113.4661 103° East 480 552 22,100 -2,400 Descending Los Angeles Center
07:43PM 33.3092 -113.3200 104° East 455 524 19,900 -1,980 Descending Los Angeles Center
07:44PM 33.2817 -113.1842 104° East 424 488 18,100 -1,260 Descending Los Angeles Center
07:46PM 33.2756 -113.0147 92° East 420 483 17,000 -600 Descending Albuquerque Center
07:47PM 33.2792 -112.8736 88° East 355 409 16,800 -540 Descending Albuquerque Center
07:48PM 33.2814 -112.7708 88° East 315 362 16,000 -480 Descending Albuquerque Center
07:49PM 33.2842 -112.6619 88° East 321 369 15,900 -900 Descending Albuquerque Center
07:50PM 33.2861 -112.5636 89° East 324 373 14,200 -1,680 Descending Albuquerque Center
07:51PM 33.2894 -112.4647 88° East 304 350 12,600 -1,560 Descending Albuquerque Center
07:52PM 33.2919 -112.3714 88° East 285 328 11,100 -840 Descending Albuquerque Center
07:53PM 33.2989 -112.2564 86° East 289 333 11,000 -420 Descending Albuquerque Center
07:54PM 33.3053 -112.1789 84° East 240 276 10,300 -1,020 Descending Albuquerque Center
07:55PM 33.3108 -112.1000 85° East 239 275 9,000 -1,260 Descending Albuquerque Center
07:56PM 33.3297 -112.0231 74° East 240 276 7,800 -1,020 Descending Albuquerque Center
07:57PM 33.3467 -111.9533 74° East 221 254 7,000 -1,500 Descending Albuquerque Center
07:58PM 33.3458 -111.8783 91° East 228 262 4,800 -1,980 Descending Albuquerque Center
07:59PM 33.3897 -111.8489 29° Northeast 227 261 3,000 -1,080 Descending Albuquerque Center
08:00PM 33.4167 -111.8833 313° West 189 217 3,000 -480 Level Phoenix TRACON
08:01PM 33.4333 -111.9333 292° West 171 197 2,200 -840 Descending Phoenix TRACON